Riaza, Spain
Current Conditions -  °F | °C
As of 12:00 AM on Friday 19 Dec 2014 (Local Time) from LETO Reporting Station
Clear Clear  
Wind Chill: 34°   Ceiling: Unl
Heat Index: 39°   Visibility: 6mi
Dew Point: 39°   Wind: 7mph
Humidity: 100%   Direction: 20°NNE
Pressure: 30.42"   Gusts: NA
Location:  41.28°N, 3.48°W
Report Text: LETO 182300Z 02006KT 9000 NSC 04/04 Q1030 NOSIG
Loading
Personal Weather Stations






























Interactive Weather Map New forecast layout! Learn more

10-Day Weather Forecast

Advertisements
Track Severe Weather on mobile